TimeCDT,TemperatureF,Dew PointF,Humidity,Sea Level PressureIn,VisibilityMPH,Wind Direction,Wind SpeedMPH,Gust SpeedMPH,PrecipitationIn,Events,Conditions,WindDirDegrees,DateUTC
12:54 AM,21.9,16.0,78,29.87,7.0,NW,15.0,-,0.00,Snow,Light Snow,320,2013-04-20 05:54:00
1:07 AM,21.2,17.6,86,29.82,1.8,NNW,13.8,20.7,0.00,Snow,Light Snow,330,2013-04-20 06:07:00
1:28 AM,21.2,17.6,86,29.83,1.5,NNW,10.4,-,0.00,Snow,Light Snow,330,2013-04-20 06:28:00
1:51 AM,21.2,17.6,86,29.84,2.5,NNW,9.2,-,0.00,Snow,Light Snow,340,2013-04-20 06:51:00
1:54 AM,21.0,17.1,85,29.89,4.0,NNW,10.4,-,0.00,Snow,Light Snow,330,2013-04-20 06:54:00
2:10 AM,19.4,15.8,86,29.84,10.0,NW,12.7,-,0.00,,Scattered Clouds,320,2013-04-20 07:10:00
2:54 AM,19.9,14.0,78,29.92,8.0,NW,9.2,-,0.00,Snow,Light Snow,310,2013-04-20 07:54:00
3:20 AM,19.4,14.0,80,29.87,9.0,NW,5.8,-,0.00,Snow,Light Snow,310,2013-04-20 08:20:00
3:54 AM,19.9,12.9,74,29.95,10.0,NW,10.4,19.6,0.00,,Mostly Cloudy,310,2013-04-20 08:54:00
4:01 AM,19.4,12.2,74,29.90,10.0,WNW,11.5,-,N/A,,Partly Cloudy,300,2013-04-20 09:01:00
4:23 AM,19.4,12.2,74,29.91,10.0,NW,11.5,-,N/A,,Mostly Cloudy,320,2013-04-20 09:23:00
4:54 AM,18.0,12.0,78,29.99,10.0,NW,8.1,-,N/A,,Scattered Clouds,310,2013-04-20 09:54:00
5:13 AM,17.6,12.2,79,29.94,10.0,NW,9.2,-,N/A,,Mostly Cloudy,320,2013-04-20 10:13:00
5:39 AM,17.6,12.2,79,29.95,10.0,NW,8.1,-,0.00,,Scattered Clouds,310,2013-04-20 10:39:00
5:54 AM,18.0,12.0,78,30.02,10.0,NW,8.1,-,0.00,,Clear,310,2013-04-20 10:54:00
6:54 AM,19.0,12.9,77,30.06,10.0,WNW,9.2,-,N/A,,Clear,300,2013-04-20 11:54:00
7:54 AM,21.9,12.9,68,30.09,10.0,NW,11.5,18.4,N/A,,Clear,310,2013-04-20 12:54:00
8:28 AM,21.2,12.2,68,30.05,10.0,NW,11.5,-,N/A,,Mostly Cloudy,310,2013-04-20 13:28:00
8:54 AM,23.0,12.9,65,30.12,10.0,WNW,11.5,-,N/A,,Scattered Clouds,300,2013-04-20 13:54:00
9:54 AM,27.0,12.9,56,30.15,10.0,NW,12.7,-,N/A,,Clear,320,2013-04-20 14:54:00
10:54 AM,30.0,12.9,49,30.18,10.0,WNW,16.1,21.9,N/A,,Clear,290,2013-04-20 15:54:00
11:54 AM,32.0,10.9,42,30.21,10.0,WNW,15.0,24.2,N/A,,Partly Cloudy,300,2013-04-20 16:54:00
12:54 PM,33.1,12.9,43,30.22,10.0,West,13.8,-,N/A,,Partly Cloudy,280,2013-04-20 17:54:00
1:54 PM,35.1,10.0,35,30.25,10.0,NW,15.0,20.7,N/A,,Clear,320,2013-04-20 18:54:00
2:54 PM,35.1,9.0,34,30.27,10.0,NW,9.2,-,N/A,,Clear,310,2013-04-20 19:54:00
3:54 PM,36.0,10.0,34,30.29,10.0,West,5.8,17.3,N/A,,Clear,280,2013-04-20 20:54:00
4:54 PM,36.0,10.0,34,30.31,10.0,North,8.1,-,N/A,,Clear,350,2013-04-20 21:54:00
5:54 PM,35.1,9.0,34,30.32,10.0,NW,3.5,-,N/A,,Clear,310,2013-04-20 22:54:00
6:54 PM,35.1,10.0,35,30.35,10.0,North,5.8,-,N/A,,Clear,350,2013-04-20 23:54:00
7:54 PM,30.9,10.9,43,30.37,10.0,NE,3.5,-,N/A,,Clear,50,2013-04-21 00:54:00
8:54 PM,28.0,14.0,56,30.39,10.0,Calm,Calm,-,N/A,,Clear,0,2013-04-21 01:54:00
9:54 PM,25.0,15.1,66,30.41,10.0,Calm,Calm,-,N/A,,Clear,0,2013-04-21 02:54:00
10:54 PM,27.0,14.0,58,30.42,10.0,East,4.6,-,N/A,,Clear,100,2013-04-21 03:54:00
11:54 PM,26.1,16.0,66,30.43,10.0,ESE,5.8,-,N/A,,Clear,110,2013-04-21 04:54:00